createdAt,value
2023-04-30T00:00:20.246Z,32.10
2023-04-30T00:01:20.306Z,32.09
2023-04-30T00:02:20.500Z,32.11
2023-04-30T00:03:20.476Z,32.06
2023-04-30T00:04:20.558Z,32.08
2023-04-30T00:05:20.537Z,32.11
2023-04-30T00:06:20.505Z,32.11
2023-04-30T00:07:20.511Z,32.10
2023-04-30T00:08:20.480Z,32.10
2023-04-30T00:09:20.494Z,32.07
2023-04-30T00:10:20.480Z,32.10
2023-04-30T00:11:20.492Z,32.14
2023-04-30T00:12:20.494Z,32.14
2023-04-30T00:13:20.521Z,32.16
2023-04-30T00:14:20.513Z,32.14
2023-04-30T00:15:20.509Z,32.19
2023-04-30T00:16:20.572Z,32.11
2023-04-30T00:17:20.514Z,32.13
2023-04-30T00:18:20.523Z,32.15
2023-04-30T00:19:20.542Z,32.16
2023-04-30T00:20:20.538Z,32.20
2023-04-30T00:21:20.561Z,32.17
2023-04-30T00:22:20.560Z,32.19
2023-04-30T00:23:20.551Z,32.17
2023-04-30T00:24:20.569Z,32.19
2023-04-30T00:25:20.572Z,32.18
2023-04-30T00:26:20.606Z,32.17
2023-04-30T00:27:20.599Z,32.12
2023-04-30T00:28:20.600Z,32.15
2023-04-30T00:29:20.638Z,32.20
2023-04-30T00:30:20.618Z,32.16
2023-04-30T00:31:20.709Z,32.26
2023-04-30T00:32:20.770Z,32.23
2023-04-30T00:33:20.669Z,32.20
2023-04-30T00:34:20.689Z,32.20
2023-04-30T00:35:20.699Z,32.18
2023-04-30T00:36:20.701Z,32.21
2023-04-30T00:37:20.719Z,32.23
2023-04-30T00:38:20.725Z,32.24
2023-04-30T00:39:20.737Z,32.24
2023-04-30T00:40:20.748Z,32.21
2023-04-30T00:41:20.766Z,32.20
2023-04-30T00:42:20.789Z,32.20
2023-04-30T00:43:20.808Z,32.22
2023-04-30T00:44:20.813Z,32.24
2023-04-30T00:45:20.852Z,32.25
2023-04-30T00:46:20.893Z,32.25
2023-04-30T00:47:20.893Z,32.25
2023-04-30T00:48:20.864Z,32.22
2023-04-30T00:49:20.880Z,32.24
2023-04-30T00:50:20.934Z,32.25
2023-04-30T00:51:20.897Z,32.21
2023-04-30T00:52:20.927Z,32.22
2023-04-30T00:53:20.927Z,32.24
2023-04-30T00:54:20.967Z,32.21
2023-04-30T00:55:20.966Z,32.24
2023-04-30T00:56:20.980Z,32.24
2023-04-30T00:57:21.000Z,32.24
2023-04-30T00:58:21.016Z,32.26
2023-04-30T00:59:21.054Z,32.25
2023-04-30T01:00:21.049Z,32.24
2023-04-30T01:01:21.109Z,32.24
2023-04-30T01:02:21.193Z,32.22
2023-04-30T01:03:21.176Z,32.22
2023-04-30T01:04:21.120Z,32.26
2023-04-30T01:05:21.146Z,32.26
2023-04-30T01:06:21.201Z,32.25
2023-04-30T01:07:21.179Z,32.27
2023-04-30T01:08:21.209Z,32.28
2023-04-30T01:09:21.224Z,32.25
2023-04-30T01:10:21.513Z,32.30
2023-04-30T01:11:21.265Z,32.22
2023-04-30T01:12:21.287Z,32.24
2023-04-30T01:13:21.311Z,32.26
2023-04-30T01:14:21.329Z,32.28
2023-04-30T01:15:21.347Z,32.24
2023-04-30T01:16:21.415Z,32.25
2023-04-30T01:17:21.429Z,32.19
2023-04-30T01:18:21.457Z,32.25
2023-04-30T01:19:21.434Z,32.26
2023-04-30T01:20:21.457Z,32.26
2023-04-30T01:21:21.480Z,32.22
2023-04-30T01:22:21.509Z,32.24
2023-04-30T01:23:21.505Z,32.25
2023-04-30T01:24:21.530Z,32.25
2023-04-30T01:25:21.556Z,32.24
2023-04-30T01:26:21.572Z,32.25
2023-04-30T01:27:21.613Z,32.26
2023-04-30T01:28:21.612Z,32.26
2023-04-30T01:29:21.649Z,32.25
2023-04-30T01:30:21.653Z,32.30
2023-04-30T01:31:21.711Z,32.25
2023-04-30T01:32:21.701Z,32.26
2023-04-30T01:33:21.745Z,32.28
2023-04-30T01:34:21.728Z,32.28
2023-04-30T01:35:21.745Z,32.23
2023-04-30T01:36:21.769Z,32.28
2023-04-30T01:37:21.788Z,32.26
2023-04-30T01:38:21.811Z,32.28
2023-04-30T01:39:21.842Z,32.24
2023-04-30T01:40:21.845Z,32.31
2023-04-30T01:41:21.857Z,32.31
2023-04-30T01:42:21.894Z,32.32
2023-04-30T01:43:21.930Z,32.28
2023-04-30T01:44:21.918Z,32.29
2023-04-30T01:45:21.944Z,32.24
2023-04-30T01:46:21.974Z,32.29
2023-04-30T01:47:22.036Z,32.28
2023-04-30T01:48:22.002Z,32.31
2023-04-30T01:49:22.080Z,32.37
2023-04-30T01:50:22.064Z,32.29
2023-04-30T01:51:22.066Z,32.32
2023-04-30T01:52:22.113Z,32.34
2023-04-30T01:53:22.107Z,32.29
2023-04-30T01:54:22.126Z,32.28
2023-04-30T01:55:22.148Z,32.32
2023-04-30T01:56:22.164Z,32.31
2023-04-30T01:57:22.195Z,32.27
2023-04-30T01:58:22.214Z,32.26
2023-04-30T01:59:22.232Z,32.29
2023-04-30T02:00:23.115Z,32.32
2023-04-30T02:01:22.295Z,32.31
2023-04-30T02:02:22.373Z,32.29
2023-04-30T02:03:22.516Z,32.31
2023-04-30T02:04:22.350Z,32.29
2023-04-30T02:05:22.393Z,32.29
2023-04-30T02:06:22.431Z,32.31
2023-04-30T02:07:22.418Z,32.32
2023-04-30T02:08:22.437Z,32.31
2023-04-30T02:09:22.451Z,32.31
2023-04-30T02:10:22.481Z,32.36
2023-04-30T02:11:22.502Z,32.27
2023-04-30T02:12:22.525Z,32.33
2023-04-30T02:13:22.539Z,32.32
2023-04-30T02:14:22.567Z,32.27
2023-04-30T02:15:22.577Z,32.29
2023-04-30T02:16:22.685Z,32.36
2023-04-30T02:17:22.624Z,32.31
2023-04-30T02:18:22.725Z,32.23
2023-04-30T02:19:22.676Z,32.32
2023-04-30T02:20:22.708Z,32.31
2023-04-30T02:21:22.753Z,32.31
2023-04-30T02:22:22.749Z,32.32
2023-04-30T02:23:22.767Z,32.25
2023-04-30T02:24:22.799Z,32.33
2023-04-30T02:25:22.823Z,32.31
2023-04-30T02:26:22.849Z,32.29
2023-04-30T02:27:22.877Z,32.29
2023-04-30T02:28:22.901Z,32.32
2023-04-30T02:29:22.925Z,32.30
2023-04-30T02:30:22.936Z,32.36
2023-04-30T02:31:23.014Z,32.31
2023-04-30T02:32:22.997Z,32.33
2023-04-30T02:33:23.016Z,32.30
2023-04-30T02:34:23.039Z,32.35
2023-04-30T02:35:23.062Z,32.32
2023-04-30T02:36:23.075Z,32.36
2023-04-30T02:37:23.115Z,32.32
2023-04-30T02:38:23.118Z,32.32
2023-04-30T02:39:23.140Z,32.32
2023-04-30T02:40:23.172Z,32.36
2023-04-30T02:41:23.202Z,32.33
2023-04-30T02:42:23.228Z,32.35
2023-04-30T02:43:23.252Z,32.41
2023-04-30T02:44:23.276Z,32.35
2023-04-30T02:45:23.294Z,32.37
2023-04-30T02:46:23.376Z,32.30
2023-04-30T02:47:23.375Z,32.30
2023-04-30T02:48:23.370Z,32.35
2023-04-30T02:49:23.395Z,32.36
2023-04-30T02:50:23.422Z,32.29
2023-04-30T02:51:23.443Z,32.39
2023-04-30T02:52:23.477Z,32.36
2023-04-30T02:53:23.520Z,32.37
2023-04-30T02:54:23.525Z,32.37
2023-04-30T02:55:23.555Z,32.33
2023-04-30T02:56:23.589Z,32.36
2023-04-30T02:57:23.612Z,32.36
2023-04-30T02:58:23.637Z,32.41
2023-04-30T02:59:23.666Z,32.33
2023-04-30T03:00:23.697Z,32.37
2023-04-30T03:01:23.759Z,32.40
2023-04-30T03:02:23.868Z,32.40
2023-04-30T03:03:23.855Z,32.39
2023-04-30T03:04:23.809Z,32.35
2023-04-30T03:05:23.858Z,32.42
2023-04-30T03:06:23.888Z,32.34
2023-04-30T03:07:23.882Z,32.40
2023-04-30T03:08:23.913Z,32.36
2023-04-30T03:09:24.124Z,32.39
2023-04-30T03:10:23.961Z,32.37
2023-04-30T03:11:24.381Z,32.43
2023-04-30T03:12:24.432Z,32.37
2023-04-30T03:13:24.376Z,32.39
2023-04-30T03:14:24.369Z,32.36
2023-04-30T03:15:24.376Z,32.33
2023-04-30T03:16:24.406Z,32.34
2023-04-30T03:17:24.451Z,32.37
2023-04-30T03:18:24.385Z,32.43
2023-04-30T03:19:24.387Z,32.43
2023-04-30T03:20:24.381Z,32.37
2023-04-30T03:21:24.384Z,32.33
2023-04-30T03:22:24.384Z,32.40
2023-04-30T03:23:24.379Z,32.37
2023-04-30T03:24:24.388Z,32.34
2023-04-30T03:25:24.422Z,32.37
2023-04-30T03:26:24.397Z,32.37
2023-04-30T03:27:24.411Z,32.40
2023-04-30T03:28:24.443Z,32.36
2023-04-30T03:29:24.469Z,32.43
2023-04-30T03:30:24.505Z,32.43
2023-04-30T03:31:24.569Z,32.39
2023-04-30T03:32:24.610Z,32.42
2023-04-30T03:33:24.647Z,32.37
2023-04-30T03:34:24.609Z,32.36
2023-04-30T03:35:24.640Z,32.40
2023-04-30T03:36:24.667Z,32.37
2023-04-30T03:37:24.703Z,32.37
2023-04-30T03:38:24.724Z,32.33
2023-04-30T03:39:24.749Z,32.36
2023-04-30T03:40:24.785Z,32.36
2023-04-30T03:41:24.832Z,32.41
2023-04-30T03:42:24.821Z,32.43
2023-04-30T03:43:24.867Z,32.37
2023-04-30T03:44:24.881Z,32.36
2023-04-30T03:45:24.936Z,32.43
2023-04-30T03:46:24.987Z,32.40
2023-04-30T03:47:24.973Z,32.38
2023-04-30T03:48:24.992Z,32.41
2023-04-30T03:49:25.413Z,32.44
2023-04-30T03:50:25.408Z,32.37
2023-04-30T03:51:25.407Z,32.43
2023-04-30T03:52:25.403Z,32.37
2023-04-30T03:53:25.414Z,32.41
2023-04-30T03:54:25.411Z,32.39
2023-04-30T03:55:25.400Z,32.37
2023-04-30T03:56:25.430Z,32.37
2023-04-30T03:57:25.425Z,32.37
2023-04-30T03:58:25.417Z,32.43
2023-04-30T03:59:25.406Z,32.38
2023-04-30T04:00:25.410Z,32.41
2023-04-30T04:01:25.428Z,32.43
2023-04-30T04:02:25.523Z,32.41
2023-04-30T04:03:25.417Z,32.40
2023-04-30T04:04:25.431Z,32.40
2023-04-30T04:05:25.448Z,32.44
2023-04-30T04:06:25.539Z,32.40
2023-04-30T04:07:25.500Z,32.38
2023-04-30T04:08:25.525Z,32.38
2023-04-30T04:09:25.552Z,32.37
2023-04-30T04:10:25.579Z,32.37
2023-04-30T04:11:25.603Z,32.41
2023-04-30T04:12:25.610Z,32.46
2023-04-30T04:13:25.690Z,32.38
2023-04-30T04:14:25.661Z,32.38
2023-04-30T04:15:25.695Z,32.44
2023-04-30T04:16:25.768Z,32.37
2023-04-30T04:17:25.757Z,32.44
2023-04-30T04:18:25.773Z,32.38
2023-04-30T04:19:25.795Z,32.41
2023-04-30T04:20:25.824Z,32.43
2023-04-30T04:21:25.881Z,32.38
2023-04-30T04:22:25.878Z,32.41
2023-04-30T04:23:25.894Z,32.34
2023-04-30T04:24:25.925Z,32.38
2023-04-30T04:25:25.951Z,32.42
2023-04-30T04:26:26.226Z,32.40
2023-04-30T04:27:26.001Z,32.44
2023-04-30T04:28:26.020Z,32.42
2023-04-30T04:29:26.072Z,32.42
2023-04-30T04:30:26.080Z,32.38
2023-04-30T04:31:26.126Z,32.40
2023-04-30T04:32:26.144Z,32.38
2023-04-30T04:33:26.170Z,32.42
2023-04-30T04:34:26.182Z,32.40
2023-04-30T04:35:26.206Z,32.46
2023-04-30T04:36:26.224Z,32.40
2023-04-30T04:37:26.258Z,32.44
2023-04-30T04:38:26.316Z,32.41
2023-04-30T04:39:26.309Z,32.41
2023-04-30T04:40:26.350Z,32.37
2023-04-30T04:41:26.360Z,32.35
2023-04-30T04:42:26.382Z,32.38
2023-04-30T04:43:26.410Z,32.40
2023-04-30T04:44:26.442Z,32.36
2023-04-30T04:45:26.510Z,32.40
2023-04-30T04:46:26.532Z,32.41
2023-04-30T04:47:26.535Z,32.38
2023-04-30T04:48:26.551Z,32.40
2023-04-30T04:49:26.567Z,32.38
2023-04-30T04:50:26.619Z,32.40
2023-04-30T04:51:26.633Z,32.42
2023-04-30T04:52:26.696Z,32.40
2023-04-30T04:53:26.685Z,32.38
2023-04-30T04:54:26.707Z,32.38
2023-04-30T04:55:26.731Z,32.35
2023-04-30T04:56:26.753Z,32.41
2023-04-30T04:57:26.776Z,32.39
2023-04-30T04:58:26.806Z,32.41
2023-04-30T04:59:26.840Z,32.42
2023-04-30T05:00:26.866Z,32.38
2023-04-30T05:01:26.943Z,32.40
2023-04-30T05:02:26.971Z,32.44
2023-04-30T05:03:27.013Z,32.31
2023-04-30T05:04:26.935Z,32.41
2023-04-30T05:05:26.956Z,32.39
2023-04-30T05:06:27.133Z,32.42
2023-04-30T05:07:26.997Z,32.38
2023-04-30T05:08:27.024Z,32.41
2023-04-30T05:09:27.056Z,32.36
2023-04-30T05:10:27.082Z,32.41
2023-04-30T05:11:27.105Z,32.37
2023-04-30T05:12:27.124Z,32.41
2023-04-30T05:13:27.156Z,32.35
2023-04-30T05:14:27.163Z,32.38
2023-04-30T05:15:27.181Z,32.41
2023-04-30T05:16:27.244Z,32.40
2023-04-30T05:17:27.326Z,32.41
2023-04-30T05:18:27.301Z,32.41
2023-04-30T05:19:27.287Z,32.41
2023-04-30T05:20:27.312Z,32.41
2023-04-30T05:21:27.363Z,32.38
2023-04-30T05:22:27.373Z,32.41
2023-04-30T05:23:27.388Z,32.40
2023-04-30T05:24:27.418Z,32.40
2023-04-30T05:25:27.438Z,32.37
2023-04-30T05:26:27.449Z,32.46
2023-04-30T05:27:27.500Z,32.38
2023-04-30T05:28:27.491Z,32.38
2023-04-30T05:29:27.516Z,32.38
2023-04-30T05:30:27.546Z,32.38
2023-04-30T05:31:27.593Z,32.35
2023-04-30T05:32:27.615Z,32.38
2023-04-30T05:33:27.648Z,32.36
2023-04-30T05:34:27.646Z,32.36
2023-04-30T05:35:27.681Z,32.36
2023-04-30T05:36:27.708Z,32.38
2023-04-30T05:37:27.724Z,32.37
2023-04-30T05:38:27.744Z,32.38
2023-04-30T05:39:27.769Z,32.42
2023-04-30T05:40:27.809Z,32.35
2023-04-30T05:41:27.814Z,32.35
2023-04-30T05:42:27.834Z,32.36
2023-04-30T05:43:27.855Z,32.37
2023-04-30T05:44:27.883Z,32.38
2023-04-30T05:45:27.909Z,32.37
2023-04-30T05:46:28.000Z,32.37
2023-04-30T05:47:27.977Z,32.41
2023-04-30T05:48:27.980Z,32.40
2023-04-30T05:49:28.040Z,32.35
2023-04-30T05:50:28.033Z,32.38
2023-04-30T05:51:28.081Z,32.38
2023-04-30T05:52:28.079Z,32.38
2023-04-30T05:53:28.104Z,32.40
2023-04-30T05:54:28.133Z,32.37
2023-04-30T05:55:28.162Z,32.32
2023-04-30T05:56:28.219Z,32.41
2023-04-30T05:57:28.211Z,32.37
2023-04-30T05:58:28.242Z,32.30
2023-04-30T05:59:28.267Z,32.34
2023-04-30T06:00:28.361Z,32.35
2023-04-30T06:01:28.373Z,32.32
2023-04-30T06:02:28.512Z,32.37
2023-04-30T06:03:28.372Z,32.35
2023-04-30T06:04:28.408Z,32.35
2023-04-30T06:05:28.490Z,32.30
2023-04-30T06:06:28.511Z,32.36
2023-04-30T06:07:28.500Z,32.37
2023-04-30T06:08:28.530Z,32.35
2023-04-30T06:09:28.550Z,32.34
2023-04-30T06:10:28.606Z,32.31
2023-04-30T06:11:28.604Z,32.30
2023-04-30T06:12:28.636Z,32.35
2023-04-30T06:13:28.643Z,32.35
2023-04-30T06:14:28.669Z,32.34
2023-04-30T06:15:28.706Z,32.37
2023-04-30T06:16:28.762Z,32.36
2023-04-30T06:17:28.772Z,32.31
2023-04-30T06:18:28.779Z,32.32
2023-04-30T06:19:28.793Z,32.34
2023-04-30T06:20:28.828Z,32.28
2023-04-30T06:21:28.867Z,32.27
2023-04-30T06:22:28.867Z,32.31
2023-04-30T06:23:28.890Z,32.30
2023-04-30T06:24:28.919Z,32.30
2023-04-30T06:25:29.712Z,32.28
2023-04-30T06:26:28.973Z,32.27
2023-04-30T06:27:29.002Z,32.28
2023-04-30T06:28:29.028Z,32.33
2023-04-30T06:29:29.047Z,32.28
2023-04-30T06:30:29.075Z,32.27
2023-04-30T06:31:29.136Z,32.28
2023-04-30T06:32:29.148Z,32.33
2023-04-30T06:33:29.149Z,32.33
2023-04-30T06:34:29.174Z,32.28
2023-04-30T06:35:29.195Z,32.31
2023-04-30T06:36:29.221Z,32.31
2023-04-30T06:37:29.276Z,32.28
2023-04-30T06:38:29.284Z,32.31
2023-04-30T06:39:29.308Z,32.30
2023-04-30T06:40:29.336Z,32.28
2023-04-30T06:41:29.375Z,32.22
2023-04-30T06:42:29.402Z,32.20
2023-04-30T06:43:29.425Z,32.27
2023-04-30T06:44:29.452Z,32.31
2023-04-30T06:45:29.474Z,32.27
2023-04-30T06:46:29.540Z,32.24
2023-04-30T06:47:29.623Z,32.31
2023-04-30T06:48:29.557Z,32.28
2023-04-30T06:49:29.576Z,32.23
2023-04-30T06:50:29.602Z,32.29
2023-04-30T06:51:30.522Z,32.27
2023-04-30T06:52:29.669Z,32.20
2023-04-30T06:53:29.721Z,32.26
2023-04-30T06:54:29.718Z,32.26
2023-04-30T06:55:29.740Z,32.23
2023-04-30T06:56:29.781Z,32.23
2023-04-30T06:57:29.806Z,32.24
2023-04-30T06:58:29.820Z,32.27
2023-04-30T06:59:29.846Z,32.21
2023-04-30T07:00:29.864Z,32.23
2023-04-30T07:01:29.926Z,32.21
2023-04-30T07:02:30.019Z,32.23
2023-04-30T07:03:29.987Z,32.21
2023-04-30T07:04:29.960Z,32.19
2023-04-30T07:05:29.984Z,32.22
2023-04-30T07:06:30.022Z,32.24
2023-04-30T07:07:30.018Z,32.21
2023-04-30T07:08:30.041Z,32.17
2023-04-30T07:09:30.087Z,32.17
2023-04-30T07:10:30.076Z,32.25
2023-04-30T07:11:30.091Z,32.21
2023-04-30T07:12:30.478Z,32.19
2023-04-30T07:13:30.522Z,32.19
2023-04-30T07:14:30.518Z,32.17
2023-04-30T07:15:30.515Z,32.20
2023-04-30T07:16:30.603Z,32.23
2023-04-30T07:17:30.564Z,32.17
2023-04-30T07:18:30.518Z,32.19
2023-04-30T07:19:30.552Z,32.19
2023-04-30T07:20:30.520Z,32.14
2023-04-30T07:21:30.520Z,32.15
2023-04-30T07:22:30.523Z,32.19
2023-04-30T07:23:30.828Z,32.16
2023-04-30T07:24:30.533Z,32.17
2023-04-30T07:25:30.700Z,32.14
2023-04-30T07:26:30.542Z,32.19
2023-04-30T07:27:30.528Z,32.16
2023-04-30T07:28:30.546Z,32.15
2023-04-30T07:29:30.555Z,32.14
2023-04-30T07:30:30.554Z,32.13
2023-04-30T07:31:30.668Z,32.16
2023-04-30T07:32:30.595Z,32.16
2023-04-30T07:33:30.605Z,32.08
2023-04-30T07:34:30.615Z,32.19
2023-04-30T07:35:30.637Z,32.16
2023-04-30T07:36:30.656Z,32.13
2023-04-30T07:37:30.677Z,32.17
2023-04-30T07:38:30.730Z,32.17
2023-04-30T07:39:30.720Z,32.11
2023-04-30T07:40:36.401Z,32.13
2023-04-30T07:41:30.759Z,32.13
2023-04-30T07:42:30.727Z,32.13
2023-04-30T07:43:31.975Z,32.13
2023-04-30T07:44:30.762Z,32.16
2023-04-30T07:45:30.711Z,32.10
2023-04-30T07:46:30.755Z,32.14
2023-04-30T07:47:30.693Z,32.10
2023-04-30T07:48:30.692Z,32.10
2023-04-30T07:49:30.677Z,32.10
2023-04-30T07:50:30.679Z,32.12
2023-04-30T07:51:30.661Z,32.06
2023-04-30T07:52:30.670Z,32.05
2023-04-30T07:53:30.667Z,32.08
2023-04-30T07:54:30.684Z,32.12
2023-04-30T07:55:30.698Z,32.14
2023-04-30T07:56:30.723Z,32.06
2023-04-30T07:57:30.760Z,32.09
2023-04-30T07:58:30.759Z,32.05
2023-04-30T07:59:30.780Z,32.08
2023-04-30T08:00:30.798Z,32.03
2023-04-30T08:01:30.804Z,32.06
2023-04-30T08:02:31.004Z,31.99
2023-04-30T08:03:30.956Z,32.08
2023-04-30T08:04:30.928Z,32.06
2023-04-30T08:05:30.870Z,32.05
2023-04-30T08:06:30.943Z,32.05
2023-04-30T08:07:30.858Z,32.05
2023-04-30T08:08:30.869Z,32.00
2023-04-30T08:09:30.866Z,32.05
2023-04-30T08:10:30.880Z,32.05
2023-04-30T08:11:30.885Z,32.06
2023-04-30T08:12:30.901Z,32.06
2023-04-30T08:13:30.926Z,31.99
2023-04-30T08:14:30.908Z,32.04
2023-04-30T08:15:30.915Z,32.02
2023-04-30T08:16:31.007Z,31.98
2023-04-30T08:17:31.000Z,31.98
2023-04-30T08:18:30.925Z,31.99
2023-04-30T08:19:30.941Z,31.95
2023-04-30T08:20:30.936Z,32.00
2023-04-30T08:21:30.935Z,31.98
2023-04-30T08:22:30.946Z,31.98
2023-04-30T08:23:30.937Z,31.97
2023-04-30T08:24:30.940Z,31.99
2023-04-30T08:25:30.940Z,32.01
2023-04-30T08:26:30.963Z,31.95
2023-04-30T08:27:30.953Z,31.98
2023-04-30T08:28:30.957Z,31.95
2023-04-30T08:29:31.003Z,31.92
2023-04-30T08:30:30.981Z,31.92
2023-04-30T08:31:31.024Z,31.92
2023-04-30T08:32:30.999Z,31.92
2023-04-30T08:33:31.570Z,31.97
2023-04-30T08:34:30.955Z,31.91
2023-04-30T08:35:30.969Z,31.94
2023-04-30T08:36:30.942Z,31.94
2023-04-30T08:37:30.953Z,31.94
2023-04-30T08:38:30.953Z,31.91
2023-04-30T08:39:30.948Z,31.92
2023-04-30T08:40:49.552Z,31.94
2023-04-30T08:41:30.937Z,31.97
2023-04-30T08:42:30.944Z,31.92
2023-04-30T08:43:30.926Z,31.97
2023-04-30T08:44:30.915Z,31.95
2023-04-30T08:45:30.929Z,31.97
2023-04-30T08:46:30.973Z,31.91
2023-04-30T08:47:30.909Z,31.92
2023-04-30T08:48:30.884Z,31.92
2023-04-30T08:49:30.868Z,31.94
2023-04-30T08:50:30.885Z,31.94
2023-04-30T08:51:30.860Z,32.01
2023-04-30T08:52:30.854Z,31.94
2023-04-30T08:53:30.850Z,31.91
2023-04-30T08:54:30.853Z,31.93
2023-04-30T08:55:30.836Z,31.93
2023-04-30T08:56:30.824Z,31.94
2023-04-30T08:57:30.818Z,31.95
2023-04-30T08:58:30.809Z,31.94
2023-04-30T08:59:30.813Z,31.91
2023-04-30T09:00:30.817Z,31.88
2023-04-30T09:01:30.898Z,31.88
2023-04-30T09:02:30.820Z,31.93
2023-04-30T09:03:30.885Z,31.93
2023-04-30T09:04:30.764Z,31.89
2023-04-30T09:05:30.764Z,31.89
2023-04-30T09:06:30.810Z,31.83
2023-04-30T09:07:30.754Z,31.89
2023-04-30T09:08:30.736Z,31.86
2023-04-30T09:09:30.746Z,31.86
2023-04-30T09:10:30.724Z,31.93
2023-04-30T09:11:30.778Z,31.87
2023-04-30T09:12:30.717Z,31.87
2023-04-30T09:13:30.702Z,31.88
2023-04-30T09:14:30.695Z,31.91
2023-04-30T09:15:30.696Z,31.87
2023-04-30T09:16:30.796Z,31.87
2023-04-30T09:17:30.715Z,31.85
2023-04-30T09:18:30.671Z,31.90
2023-04-30T09:19:30.670Z,31.94
2023-04-30T09:20:30.647Z,31.87
2023-04-30T09:21:30.641Z,31.90
2023-04-30T09:22:30.637Z,31.86
2023-04-30T09:23:30.624Z,31.87
2023-04-30T09:24:30.646Z,31.86
2023-04-30T09:25:30.614Z,31.87
2023-04-30T09:26:30.610Z,31.87
2023-04-30T09:27:30.612Z,31.87
2023-04-30T09:28:30.596Z,31.85
2023-04-30T09:29:30.597Z,31.84
2023-04-30T09:30:30.598Z,31.87
2023-04-30T09:31:30.660Z,31.83
2023-04-30T09:32:30.621Z,31.82
2023-04-30T09:33:30.620Z,31.85
2023-04-30T09:34:30.602Z,31.80
2023-04-30T09:35:30.599Z,31.82
2023-04-30T09:36:30.599Z,31.80
2023-04-30T09:37:30.603Z,31.86
2023-04-30T09:38:30.606Z,31.85
2023-04-30T09:39:30.597Z,31.79
2023-04-30T09:40:30.602Z,31.79
2023-04-30T09:41:30.604Z,31.82
2023-04-30T09:42:30.606Z,31.76
2023-04-30T09:43:30.614Z,31.83
2023-04-30T09:44:30.644Z,31.82
2023-04-30T09:45:32.202Z,31.80
2023-04-30T09:46:30.653Z,31.85
2023-04-30T09:47:30.634Z,31.82
2023-04-30T09:48:30.666Z,31.80
2023-04-30T09:49:30.640Z,31.76
2023-04-30T09:50:30.613Z,31.79
2023-04-30T09:51:30.620Z,31.77
2023-04-30T09:52:30.621Z,31.80
2023-04-30T09:53:30.613Z,31.81
2023-04-30T09:54:30.608Z,31.79
2023-04-30T09:55:30.612Z,31.78
2023-04-30T09:56:30.613Z,31.76
2023-04-30T09:57:31.610Z,31.70
2023-04-30T09:58:30.620Z,31.76
2023-04-30T09:59:30.614Z,31.72
2023-04-30T10:00:30.671Z,31.72
2023-04-30T10:01:30.664Z,31.75
2023-04-30T10:02:30.679Z,31.76
2023-04-30T10:03:30.649Z,31.76
2023-04-30T10:04:30.617Z,31.70
2023-04-30T10:05:30.648Z,31.73
2023-04-30T10:06:30.624Z,31.74
2023-04-30T10:07:30.616Z,31.79
2023-04-30T10:08:30.619Z,31.74
2023-04-30T10:09:30.632Z,31.76
2023-04-30T10:10:30.634Z,31.81
2023-04-30T10:11:30.622Z,31.70
2023-04-30T10:12:30.628Z,31.76
2023-04-30T10:13:30.624Z,31.78
2023-04-30T10:14:30.625Z,31.68
2023-04-30T10:15:30.645Z,31.68
2023-04-30T10:16:30.640Z,31.72
2023-04-30T10:17:30.704Z,31.72
2023-04-30T10:18:30.686Z,31.71
2023-04-30T10:19:30.749Z,31.70
2023-04-30T10:20:30.790Z,31.68
2023-04-30T10:21:30.864Z,31.65
2023-04-30T10:22:30.886Z,31.67
2023-04-30T10:23:30.940Z,31.69
2023-04-30T10:24:30.999Z,31.64
2023-04-30T10:25:31.054Z,31.65
2023-04-30T10:26:31.120Z,31.65
2023-04-30T10:27:31.196Z,31.70
2023-04-30T10:28:31.634Z,31.68
2023-04-30T10:29:31.643Z,31.62
2023-04-30T10:30:31.635Z,31.58
2023-04-30T10:31:31.684Z,31.65
2023-04-30T10:32:31.792Z,31.68
2023-04-30T10:33:31.637Z,31.63
2023-04-30T10:34:31.651Z,31.57
2023-04-30T10:35:31.672Z,31.61
2023-04-30T10:36:31.745Z,31.63
2023-04-30T10:37:31.831Z,31.63
2023-04-30T10:38:31.940Z,31.55
2023-04-30T10:39:31.942Z,31.60
2023-04-30T10:40:32.032Z,31.61
2023-04-30T10:41:32.087Z,31.56
2023-04-30T10:42:32.810Z,31.57
2023-04-30T10:43:32.194Z,31.54
2023-04-30T10:44:32.266Z,31.60
2023-04-30T10:45:32.316Z,31.51
2023-04-30T10:46:32.408Z,31.54
2023-04-30T10:47:32.496Z,31.65
2023-04-30T10:48:32.513Z,31.61
2023-04-30T10:49:32.577Z,31.57
2023-04-30T10:50:32.652Z,31.57
2023-04-30T10:51:32.702Z,31.59
2023-04-30T10:52:32.766Z,31.56
2023-04-30T10:53:32.895Z,31.56
2023-04-30T10:54:32.888Z,31.50
2023-04-30T10:55:32.951Z,31.59
2023-04-30T10:56:33.017Z,31.57
2023-04-30T10:57:33.084Z,31.51
2023-04-30T10:58:33.144Z,31.57
2023-04-30T10:59:33.213Z,31.49
2023-04-30T11:00:33.270Z,31.51
2023-04-30T11:01:33.419Z,31.50
2023-04-30T11:02:33.423Z,31.50
2023-04-30T11:03:33.441Z,31.47
2023-04-30T11:04:33.532Z,31.49
2023-04-30T11:05:33.553Z,31.43
2023-04-30T11:06:33.652Z,31.50
2023-04-30T11:07:33.662Z,31.44
2023-04-30T11:08:33.721Z,31.46
2023-04-30T11:09:33.907Z,31.45
2023-04-30T11:10:33.823Z,31.48
2023-04-30T11:11:33.883Z,31.47
2023-04-30T11:12:33.951Z,31.48
2023-04-30T11:13:34.004Z,31.49
2023-04-30T11:14:34.252Z,31.49
2023-04-30T11:15:34.165Z,31.42
2023-04-30T11:16:34.330Z,31.46
2023-04-30T11:17:34.287Z,31.42
2023-04-30T11:18:34.292Z,31.45
2023-04-30T11:19:34.337Z,31.46
2023-04-30T11:20:34.397Z,31.45
2023-04-30T11:21:34.445Z,31.45
2023-04-30T11:22:34.491Z,31.45
2023-04-30T11:24:33.545Z,31.42
2023-04-30T11:25:34.549Z,31.45
2023-04-30T11:26:34.521Z,31.36
2023-04-30T11:27:34.518Z,31.44
2023-04-30T11:28:34.540Z,31.40
2023-04-30T11:29:34.570Z,31.37
2023-04-30T11:30:34.498Z,31.39
2023-04-30T11:31:34.611Z,31.39
2023-04-30T11:32:34.566Z,31.38
2023-04-30T11:33:34.488Z,31.41
2023-04-30T11:34:34.469Z,31.39
2023-04-30T11:35:34.466Z,31.38
2023-04-30T11:36:34.478Z,31.38
2023-04-30T11:37:34.459Z,31.42
2023-04-30T11:38:34.453Z,31.38
2023-04-30T11:39:34.440Z,31.39
2023-04-30T11:40:34.432Z,31.39
2023-04-30T11:41:34.611Z,31.41
2023-04-30T11:42:34.574Z,31.38
2023-04-30T11:43:34.589Z,31.42
2023-04-30T11:44:34.623Z,31.38
2023-04-30T11:45:34.678Z,31.42
2023-04-30T11:46:34.752Z,31.38
2023-04-30T11:47:34.788Z,31.37
2023-04-30T11:48:34.804Z,31.37
2023-04-30T11:49:34.853Z,31.37
2023-04-30T11:50:34.912Z,31.41
2023-04-30T11:51:34.942Z,31.35
2023-04-30T11:52:34.989Z,31.44
2023-04-30T11:53:35.033Z,31.38
2023-04-30T11:54:35.088Z,31.34
2023-04-30T11:55:35.159Z,31.35
2023-04-30T11:56:35.172Z,31.37
2023-04-30T11:57:35.242Z,31.37
2023-04-30T11:58:35.280Z,31.38
2023-04-30T11:59:35.311Z,31.35
2023-04-30T12:00:35.352Z,31.38
2023-04-30T12:01:35.452Z,31.37
2023-04-30T12:02:35.599Z,31.34
2023-04-30T12:03:35.522Z,31.35
2023-04-30T12:04:35.553Z,31.38
2023-04-30T12:05:35.570Z,31.36
2023-04-30T12:06:35.673Z,31.33
2023-04-30T12:07:35.628Z,31.33
2023-04-30T12:08:35.688Z,31.31
2023-04-30T12:09:35.704Z,31.33
2023-04-30T12:10:35.740Z,31.28
2023-04-30T12:11:35.790Z,31.27
2023-04-30T12:12:35.817Z,31.34
2023-04-30T12:13:35.878Z,31.26
2023-04-30T12:14:35.895Z,31.29
2023-04-30T12:15:35.929Z,31.31
2023-04-30T12:16:35.997Z,31.31
2023-04-30T12:17:36.035Z,31.30
2023-04-30T12:18:36.042Z,31.31
2023-04-30T12:19:36.062Z,31.27
2023-04-30T12:20:36.111Z,31.30
2023-04-30T12:21:36.150Z,31.33
2023-04-30T12:22:36.176Z,31.27
2023-04-30T12:23:36.215Z,31.32
2023-04-30T12:24:36.236Z,31.34
2023-04-30T12:25:36.273Z,31.30
2023-04-30T12:26:36.702Z,31.30
2023-04-30T12:27:36.701Z,31.30
2023-04-30T12:28:36.703Z,31.27
2023-04-30T12:29:36.732Z,31.26
2023-04-30T12:30:36.747Z,31.33
2023-04-30T12:31:36.838Z,31.29
2023-04-30T12:32:36.722Z,31.24
2023-04-30T12:33:36.705Z,31.21
2023-04-30T12:34:36.701Z,31.20
2023-04-30T12:35:36.710Z,31.26
2023-04-30T12:36:36.729Z,31.26
2023-04-30T12:37:36.707Z,31.32
2023-04-30T12:38:36.719Z,31.25
2023-04-30T12:39:36.719Z,31.27
2023-04-30T12:40:36.756Z,31.32
2023-04-30T12:41:36.788Z,31.25
2023-04-30T12:42:36.821Z,31.22
2023-04-30T12:43:36.869Z,31.26
2023-04-30T12:44:36.973Z,31.23
2023-04-30T12:45:36.937Z,31.26
2023-04-30T12:46:36.958Z,31.24
2023-04-30T12:47:38.352Z,31.26
2023-04-30T12:48:37.046Z,31.28
2023-04-30T12:49:37.037Z,31.25
2023-04-30T12:50:37.066Z,31.25
2023-04-30T12:51:37.093Z,31.25
2023-04-30T12:52:37.110Z,31.25
2023-04-30T12:53:37.143Z,31.33